Time,TemperatureF,DewpointF,PressureIn,WindDirection,WindDirectionDegrees,WindSpeedMPH,WindSpeedGustMPH,Humidity,HourlyPrecipIn,Conditions,Clouds,dailyrainin,SoftwareType,DateUTC
2013-03-31 00:02:00,53.0,-99.9,-100.00,NNW,336,9.0,-999.0,-999,-99.99,,,-99.99,,2013-03-31 07:02:00,
2013-03-31 00:12:00,53.0,-99.9,-100.00,NNW,336,9.0,-999.0,-999,-99.99,,,-99.99,,2013-03-31 07:12:00,
2013-03-31 00:20:00,53.0,-99.9,-100.00,NNW,329,8.0,-999.0,-999,-99.99,,,-99.99,,2013-03-31 07:20:00,
2013-03-31 01:02:00,53.0,-99.9,-100.00,NNW,329,8.0,-999.0,-999,-99.99,,,-99.99,,2013-03-31 08:02:00,
2013-03-31 01:13:00,53.0,-99.9,-100.00,NNW,329,8.0,-999.0,-999,-99.99,,,-99.99,,2013-03-31 08:13:00,
2013-03-31 01:20:00,51.0,-99.9,-100.00,NW,311,8.0,-999.0,-999,-99.99,,,-99.99,,2013-03-31 08:20:00,
2013-03-31 02:02:00,51.0,-99.9,-100.00,NW,311,8.0,-999.0,-999,-99.99,,,-99.99,,2013-03-31 09:02:00,
2013-03-31 02:12:00,51.0,-99.9,-100.00,NW,311,8.0,-999.0,-999,-99.99,,,-99.99,,2013-03-31 09:12:00,
2013-03-31 02:20:00,52.0,-99.9,-100.00,NW,319,7.0,-999.0,-999,-99.99,,,-99.99,,2013-03-31 09:20:00,
2013-03-31 03:03:00,52.0,-99.9,-100.00,NW,319,7.0,-999.0,-999,-99.99,,,-99.99,,2013-03-31 10:03:00,
2013-03-31 03:13:00,52.0,-99.9,-100.00,NW,319,7.0,-999.0,-999,-99.99,,,-99.99,,2013-03-31 10:13:00,
2013-03-31 03:20:00,51.0,-99.9,-100.00,WNW,293,5.0,-999.0,-999,-99.99,,,-99.99,,2013-03-31 10:20:00,
2013-03-31 04:03:00,51.0,-99.9,-100.00,WNW,293,5.0,-999.0,-999,-99.99,,,-99.99,,2013-03-31 11:03:00,
2013-03-31 04:12:00,51.0,-99.9,-100.00,WNW,293,5.0,-999.0,-999,-99.99,,,-99.99,,2013-03-31 11:12:00,
2013-03-31 04:20:00,50.0,-99.9,-100.00,NW,317,8.0,-999.0,-999,-99.99,,,-99.99,,2013-03-31 11:20:00,
2013-03-31 05:03:00,50.0,-99.9,-100.00,NW,317,8.0,-999.0,-999,-99.99,,,-99.99,,2013-03-31 12:03:00,
2013-03-31 05:12:00,50.0,-99.9,-100.00,NW,317,8.0,-999.0,-999,-99.99,,,-99.99,,2013-03-31 12:12:00,
2013-03-31 05:20:00,50.0,-99.9,-100.00,NW,321,8.0,-999.0,-999,-99.99,,,-99.99,,2013-03-31 12:20:00,
2013-03-31 06:02:00,50.0,-99.9,-100.00,NW,321,8.0,-999.0,-999,-99.99,,,-99.99,,2013-03-31 13:02:00,
2013-03-31 06:12:00,50.0,-99.9,-100.00,NW,321,8.0,-999.0,-999,-99.99,,,-99.99,,2013-03-31 13:12:00,
2013-03-31 06:20:00,50.0,-99.9,-100.00,NW,307,7.0,-999.0,-999,-99.99,,,-99.99,,2013-03-31 13:20:00,
2013-03-31 07:03:00,50.0,-99.9,-100.00,NW,307,7.0,-999.0,-999,-99.99,,,-99.99,,2013-03-31 14:03:00,
2013-03-31 07:13:00,50.0,-99.9,-100.00,NW,307,7.0,-999.0,-999,-99.99,,,-99.99,,2013-03-31 14:13:00,
2013-03-31 07:20:00,50.0,-99.9,-100.00,NW,324,8.0,-999.0,-999,-99.99,,,-99.99,,2013-03-31 14:20:00,
2013-03-31 08:03:00,50.0,-99.9,-100.00,NW,324,8.0,-999.0,-999,-99.99,,,-99.99,,2013-03-31 15:03:00,
2013-03-31 08:13:00,50.0,-99.9,-100.00,NW,324,8.0,-999.0,-999,-99.99,,,-99.99,,2013-03-31 15:13:00,
2013-03-31 08:20:00,52.0,-99.9,-100.00,NNW,348,5.0,-999.0,-999,-99.99,,,-99.99,,2013-03-31 15:20:00,
2013-03-31 09:03:00,52.0,-99.9,-100.00,NNW,348,5.0,-999.0,-999,-99.99,,,-99.99,,2013-03-31 16:03:00,
2013-03-31 09:14:00,52.0,-99.9,-100.00,NNW,348,5.0,-999.0,-999,-99.99,,,-99.99,,2013-03-31 16:14:00,
2013-03-31 09:20:00,52.0,-99.9,-100.00,NNW,333,6.0,-999.0,-999,-99.99,,,-99.99,,2013-03-31 16:20:00,
2013-03-31 10:03:00,52.0,-99.9,-100.00,NNW,333,6.0,-999.0,-999,-99.99,,,-99.99,,2013-03-31 17:03:00,
2013-03-31 10:13:00,52.0,-99.9,-100.00,NNW,333,6.0,-999.0,-999,-99.99,,,-99.99,,2013-03-31 17:13:00,
2013-03-31 10:20:00,51.0,-99.9,-100.00,NNW,344,9.0,-999.0,-999,-99.99,,,-99.99,,2013-03-31 17:20:00,
2013-03-31 11:03:00,51.0,-99.9,-100.00,NNW,344,9.0,-999.0,-999,-99.99,,,-99.99,,2013-03-31 18:03:00,
2013-03-31 11:13:00,51.0,-99.9,-100.00,NNW,344,9.0,-999.0,-999,-99.99,,,-99.99,,2013-03-31 18:13:00,
2013-03-31 11:20:00,53.0,-99.9,-100.00,North,357,12.0,-999.0,-999,-99.99,,,-99.99,,2013-03-31 18:20:00,
2013-03-31 12:03:00,53.0,-99.9,-100.00,North,357,12.0,-999.0,-999,-99.99,,,-99.99,,2013-03-31 19:03:00,
2013-03-31 12:13:00,53.0,-99.9,-100.00,North,357,12.0,-999.0,-999,-99.99,,,-99.99,,2013-03-31 19:13:00,
2013-03-31 13:03:00,53.0,-99.9,-100.00,North,356,13.0,-999.0,-999,-99.99,,,-99.99,,2013-03-31 20:03:00,
2013-03-31 13:20:00,56.0,-99.9,-100.00,North,352,8.0,-999.0,-999,-99.99,,,-99.99,,2013-03-31 20:20:00,
2013-03-31 14:03:00,56.0,-99.9,-100.00,North,352,8.0,-999.0,-999,-99.99,,,-99.99,,2013-03-31 21:03:00,
2013-03-31 14:13:00,56.0,-99.9,-100.00,North,352,8.0,-999.0,-999,-99.99,,,-99.99,,2013-03-31 21:13:00,
2013-03-31 15:04:00,56.0,-99.9,-100.00,North,353,9.0,-999.0,-999,-99.99,,,-99.99,,2013-03-31 22:04:00,
2013-03-31 15:20:00,59.0,-99.9,-100.00,North,351,8.0,-999.0,-999,-99.99,,,-99.99,,2013-03-31 22:20:00,
2013-03-31 16:03:00,59.0,-99.9,-100.00,North,351,8.0,-999.0,-999,-99.99,,,-99.99,,2013-03-31 23:03:00,
2013-03-31 16:13:00,59.0,-99.9,-100.00,North,351,8.0,-999.0,-999,-99.99,,,-99.99,,2013-03-31 23:13:00,
2013-03-31 17:03:00,59.0,-99.9,-100.00,NW,324,1.0,-999.0,-999,-99.99,,,-99.99,,2013-04-01 00:03:00,
2013-03-31 18:03:00,60.0,-99.9,-100.00,NNW,335,7.0,-999.0,-999,-99.99,,,-99.99,,2013-04-01 01:03:00,
2013-03-31 18:20:00,61.0,-99.9,-100.00,NW,326,3.0,-999.0,-999,-99.99,,,-99.99,,2013-04-01 01:20:00,
2013-03-31 19:03:00,61.0,-99.9,-100.00,NW,326,3.0,-999.0,-999,-99.99,,,-99.99,,2013-04-01 02:03:00,
2013-03-31 19:13:00,61.0,-99.9,-100.00,NW,326,3.0,-999.0,-999,-99.99,,,-99.99,,2013-04-01 02:13:00,
2013-03-31 20:03:00,56.0,-99.9,-100.00,North,0,0.0,-999.0,-999,-99.99,,,-99.99,,2013-04-01 03:03:00,
2013-03-31 20:20:00,55.0,-99.9,-100.00,North,0,0.0,-999.0,-999,-99.99,,,-99.99,,2013-04-01 03:20:00,
2013-03-31 21:03:00,55.0,-99.9,-100.00,North,0,0.0,-999.0,-999,-99.99,,,-99.99,,2013-04-01 04:03:00,
2013-03-31 21:14:00,55.0,-99.9,-100.00,North,0,0.0,-999.0,-999,-99.99,,,-99.99,,2013-04-01 04:14:00,
2013-03-31 21:20:00,54.0,-99.9,-100.00,SSE,166,0.0,-999.0,-999,-99.99,,,-99.99,,2013-04-01 04:20:00,
2013-03-31 22:03:00,54.0,-99.9,-100.00,SSE,166,0.0,-999.0,-999,-99.99,,,-99.99,,2013-04-01 05:03:00,
2013-03-31 22:13:00,54.0,-99.9,-100.00,SSE,166,0.0,-999.0,-999,-99.99,,,-99.99,,2013-04-01 05:13:00,
2013-03-31 22:20:00,52.0,-99.9,-100.00,SSE,151,3.0,-999.0,-999,-99.99,,,-99.99,,2013-04-01 05:20:00,
2013-03-31 23:02:00,52.0,-99.9,-100.00,SSE,151,3.0,-999.0,-999,-99.99,,,-99.99,,2013-04-01 06:02:00,
2013-03-31 23:13:00,52.0,-99.9,-100.00,SSE,151,3.0,-999.0,-999,-99.99,,,-99.99,,2013-04-01 06:13:00,
2013-03-31 23:20:00,51.0,-99.9,-100.00,SE,138,3.0,-999.0,-999,-99.99,,,-99.99,,2013-04-01 06:20:00,